sensor_id;sensor_type;location;lat;lon;timestamp;pressure;altitude;pressure_sealevel;temperature;humidity
706;BME280;21234;48.690;9.016;2023-04-26T00:01:33;96137.78;;;6.15;89.20
706;BME280;21234;48.690;9.016;2023-04-26T00:04:01;96141.91;;;6.17;89.41
706;BME280;21234;48.690;9.016;2023-04-26T00:06:27;96130.78;;;6.25;93.22
706;BME280;21234;48.690;9.016;2023-04-26T00:08:54;96131.59;;;6.26;94.48
706;BME280;21234;48.690;9.016;2023-04-26T00:11:22;96132.22;;;6.28;93.02
706;BME280;21234;48.690;9.016;2023-04-26T00:13:49;96128.88;;;6.14;90.43
706;BME280;21234;48.690;9.016;2023-04-26T00:16:16;96133.81;;;6.17;91.90
706;BME280;21234;48.690;9.016;2023-04-26T00:18:44;96132.38;;;6.15;92.30
706;BME280;21234;48.690;9.016;2023-04-26T00:21:11;96136.59;;;6.11;90.71
706;BME280;21234;48.690;9.016;2023-04-26T00:23:38;96133.81;;;6.17;92.25
706;BME280;21234;48.690;9.016;2023-04-26T00:26:05;96131.91;;;6.18;91.04
706;BME280;21234;48.690;9.016;2023-04-26T00:28:33;96130.78;;;6.25;90.39
706;BME280;21234;48.690;9.016;2023-04-26T00:31:00;96122.75;;;6.19;89.83
706;BME280;21234;48.690;9.016;2023-04-26T00:33:27;96129.72;;;6.26;90.49
706;BME280;21234;48.690;9.016;2023-04-26T00:35:54;96134.75;;;6.23;90.17
706;BME280;21234;48.690;9.016;2023-04-26T00:38:21;96132.72;;;6.18;91.18
706;BME280;21234;48.690;9.016;2023-04-26T00:40:48;96126.16;;;6.14;90.69
706;BME280;21234;48.690;9.016;2023-04-26T00:43:15;96130.50;;;6.15;90.91
706;BME280;21234;48.690;9.016;2023-04-26T00:45:43;96127.28;;;6.06;92.30
706;BME280;21234;48.690;9.016;2023-04-26T00:48:10;96134.75;;;6.23;91.78
706;BME280;21234;48.690;9.016;2023-04-26T00:50:37;96129.91;;;6.13;92.13
706;BME280;21234;48.690;9.016;2023-04-26T00:53:04;96131.47;;;6.02;90.65
706;BME280;21234;48.690;9.016;2023-04-26T00:55:32;96130.28;;;5.98;91.02
706;BME280;21234;48.690;9.016;2023-04-26T00:57:58;96135.22;;;6.01;91.38
706;BME280;21234;48.690;9.016;2023-04-26T01:00:25;96136.59;;;6.11;92.25
706;BME280;21234;48.690;9.016;2023-04-26T01:02:53;96133.50;;;6.07;91.23
706;BME280;21234;48.690;9.016;2023-04-26T01:25:32;96133.16;;;5.79;89.44
706;BME280;21234;48.690;9.016;2023-04-26T01:27:59;96133.56;;;5.82;89.23
706;BME280;21234;48.690;9.016;2023-04-26T01:30:26;96133.16;;;5.79;88.28
706;BME280;21234;48.690;9.016;2023-04-26T01:32:53;96131.81;;;5.69;89.49
706;BME280;21234;48.690;9.016;2023-04-26T01:35:19;96136.59;;;5.67;88.90
706;BME280;21234;48.690;9.016;2023-04-26T01:37:46;96129.78;;;5.65;90.55
706;BME280;21234;48.690;9.016;2023-04-26T01:40:13;96132.19;;;5.73;91.29
706;BME280;21234;48.690;9.016;2023-04-26T01:42:41;96130.47;;;5.79;90.38
706;BME280;21234;48.690;9.016;2023-04-26T01:45:08;96127.41;;;5.75;90.97
706;BME280;21234;48.690;9.016;2023-04-26T01:47:36;96139.84;;;5.76;90.75
706;BME280;21234;48.690;9.016;2023-04-26T01:50:03;96130.47;;;5.79;90.24
706;BME280;21234;48.690;9.016;2023-04-26T01:52:30;96122.88;;;5.87;89.97
706;BME280;21234;48.690;9.016;2023-04-26T01:54:57;96125.81;;;5.67;87.15
706;BME280;21234;48.690;9.016;2023-04-26T01:57:23;96119.19;;;5.63;88.49
706;BME280;21234;48.690;9.016;2023-04-26T01:59:51;96117.16;;;5.59;89.07
706;BME280;21234;48.690;9.016;2023-04-26T02:02:20;96109.84;;;5.66;90.45
706;BME280;21234;48.690;9.016;2023-04-26T02:04:46;96116.72;;;5.62;88.37
706;BME280;21234;48.690;9.016;2023-04-26T02:07:13;96122.94;;;5.62;88.43
706;BME280;21234;48.690;9.016;2023-04-26T02:09:40;96113.75;;;5.70;89.05
706;BME280;21234;48.690;9.016;2023-04-26T02:12:06;96120.09;;;5.57;86.24
706;BME280;21234;48.690;9.016;2023-04-26T02:14:33;96114.63;;;5.46;85.96
706;BME280;21234;48.690;9.016;2023-04-26T02:17:02;96111.22;;;5.32;86.61
706;BME280;21234;48.690;9.016;2023-04-26T02:19:29;96120.84;;;5.46;88.57
706;BME280;21234;48.690;9.016;2023-04-26T02:21:57;96124.50;;;5.27;87.59
706;BME280;21234;48.690;9.016;2023-04-26T02:24:23;96120.38;;;5.24;87.74
706;BME280;21234;48.690;9.016;2023-04-26T02:26:50;96125.56;;;5.51;88.75
706;BME280;21234;48.690;9.016;2023-04-26T02:29:18;96128.50;;;5.49;88.46
706;BME280;21234;48.690;9.016;2023-04-26T02:31:45;96130.19;;;5.44;88.20
706;BME280;21234;48.690;9.016;2023-04-26T02:34:14;96131.94;;;5.31;89.05
706;BME280;21234;48.690;9.016;2023-04-26T02:36:41;96132.28;;;5.42;88.86
706;BME280;21234;48.690;9.016;2023-04-26T02:39:07;96133.19;;;5.54;88.50
706;BME280;21234;48.690;9.016;2023-04-26T02:41:34;96137.63;;;5.48;88.43
706;BME280;21234;48.690;9.016;2023-04-26T02:44:01;96134.63;;;5.31;88.87
706;BME280;21234;48.690;9.016;2023-04-26T02:46:28;96132.38;;;5.28;88.78
706;BME280;21234;48.690;9.016;2023-04-26T02:48:54;96130.28;;;5.30;89.02
706;BME280;21234;48.690;9.016;2023-04-26T02:51:23;96131.69;;;5.15;88.32
706;BME280;21234;48.690;9.016;2023-04-26T02:53:51;96134.16;;;5.16;89.50
706;BME280;21234;48.690;9.016;2023-04-26T02:56:18;96131.69;;;5.15;89.40
706;BME280;21234;48.690;9.016;2023-04-26T02:58:45;96133.47;;;5.21;90.70
706;BME280;21234;48.690;9.016;2023-04-26T03:01:12;96133.97;;;5.36;91.08
706;BME280;21234;48.690;9.016;2023-04-26T03:03:39;96129.66;;;5.53;91.50
706;BME280;21234;48.690;9.016;2023-04-26T03:06:06;96137.84;;;5.47;91.26
706;BME280;21234;48.690;9.016;2023-04-26T03:08:34;96133.06;;;5.49;90.61
706;BME280;21234;48.690;9.016;2023-04-26T03:11:01;96129.38;;;5.61;90.63
706;BME280;21234;48.690;9.016;2023-04-26T03:13:28;96135.03;;;5.78;89.70
706;BME280;21234;48.690;9.016;2023-04-26T03:15:55;96139.72;;;5.89;88.93
706;BME280;21234;48.690;9.016;2023-04-26T03:18:21;96134.78;;;5.61;89.81
706;BME280;21234;48.690;9.016;2023-04-26T03:20:48;96135.59;;;5.62;89.31
706;BME280;21234;48.690;9.016;2023-04-26T03:23:15;96132.84;;;5.50;89.10
706;BME280;21234;48.690;9.016;2023-04-26T03:25:44;96130.47;;;5.35;90.04
706;BME280;21234;48.690;9.016;2023-04-26T03:28:11;96132.91;;;5.62;89.86
706;BME280;21234;48.690;9.016;2023-04-26T03:30:37;96132.03;;;5.68;89.12
706;BME280;21234;48.690;9.016;2023-04-26T03:33:04;96129.31;;;5.68;88.76
706;BME280;21234;48.690;9.016;2023-04-26T03:35:31;96130.97;;;5.51;89.42
706;BME280;21234;48.690;9.016;2023-04-26T03:37:58;96127.25;;;5.20;90.27
706;BME280;21234;48.690;9.016;2023-04-26T03:40:24;96129.53;;;5.23;90.76
706;BME280;21234;48.690;9.016;2023-04-26T03:42:52;96122.56;;;5.16;90.66
706;BME280;21234;48.690;9.016;2023-04-26T03:45:19;96122.66;;;5.02;91.17
706;BME280;21234;48.690;9.016;2023-04-26T03:47:46;96112.75;;;4.96;90.87
706;BME280;21234;48.690;9.016;2023-04-26T03:50:12;96121.56;;;5.10;91.07
706;BME280;21234;48.690;9.016;2023-04-26T03:52:39;96121.44;;;4.98;90.85
706;BME280;21234;48.690;9.016;2023-04-26T03:55:06;96123.53;;;4.96;90.28
706;BME280;21234;48.690;9.016;2023-04-26T03:57:34;96124.72;;;4.76;91.39
706;BME280;21234;48.690;9.016;2023-04-26T04:00:03;96124.47;;;4.84;90.97
706;BME280;21234;48.690;9.016;2023-04-26T04:02:34;96130.09;;;4.76;91.11
706;BME280;21234;48.690;9.016;2023-04-26T04:05:00;96130.16;;;4.62;93.17
706;BME280;21234;48.690;9.016;2023-04-26T04:07:27;96130.38;;;4.61;92.59
706;BME280;21234;48.690;9.016;2023-04-26T04:09:54;96125.97;;;4.73;92.78
706;BME280;21234;48.690;9.016;2023-04-26T04:12:21;96133.28;;;4.91;92.00
706;BME280;21234;48.690;9.016;2023-04-26T04:14:48;96127.16;;;5.09;90.74
706;BME280;21234;48.690;9.016;2023-04-26T04:17:16;96124.03;;;4.87;91.08
706;BME280;21234;48.690;9.016;2023-04-26T04:19:43;96125.56;;;4.69;91.69
706;BME280;21234;48.690;9.016;2023-04-26T04:22:10;96123.94;;;4.68;92.99
706;BME280;21234;48.690;9.016;2023-04-26T04:24:37;96130.38;;;4.61;92.82
706;BME280;21234;48.690;9.016;2023-04-26T04:27:03;96134.00;;;4.48;94.04
706;BME280;21234;48.690;9.016;2023-04-26T04:29:30;96131.13;;;4.43;94.06
706;BME280;21234;48.690;9.016;2023-04-26T04:31:57;96133.44;;;5.02;92.41
706;BME280;21234;48.690;9.016;2023-04-26T04:34:25;96140.75;;;5.20;90.74
706;BME280;21234;48.690;9.016;2023-04-26T04:36:51;96144.22;;;5.27;90.08
706;BME280;21234;48.690;9.016;2023-04-26T04:39:18;96136.13;;;5.27;90.32
706;BME280;21234;48.690;9.016;2023-04-26T04:41:45;96136.50;;;5.06;91.47
706;BME280;21234;48.690;9.016;2023-04-26T04:44:13;96141.25;;;4.79;93.62
706;BME280;21234;48.690;9.016;2023-04-26T04:46:41;96140.41;;;4.85;94.67
706;BME280;21234;48.690;9.016;2023-04-26T04:49:07;96135.91;;;5.04;93.53
706;BME280;21234;48.690;9.016;2023-04-26T04:51:36;96140.03;;;5.31;92.51
706;BME280;21234;48.690;9.016;2023-04-26T04:54:09;96139.81;;;5.08;93.78
706;BME280;21234;48.690;9.016;2023-04-26T04:56:36;96151.59;;;5.14;94.38
706;BME280;21234;48.690;9.016;2023-04-26T04:59:02;96142.06;;;5.36;94.13
706;BME280;21234;48.690;9.016;2023-04-26T05:01:29;96151.59;;;5.38;92.78
706;BME280;21234;48.690;9.016;2023-04-26T05:03:56;96144.59;;;5.31;93.09
706;BME280;21234;48.690;9.016;2023-04-26T05:06:23;96149.06;;;5.44;92.87
706;BME280;21234;48.690;9.016;2023-04-26T05:08:51;96145.44;;;5.31;94.94
706;BME280;21234;48.690;9.016;2023-04-26T05:11:18;96145.03;;;5.53;93.58
706;BME280;21234;48.690;9.016;2023-04-26T05:13:45;96153.16;;;5.21;95.07
706;BME280;21234;48.690;9.016;2023-04-26T05:16:12;96157.28;;;5.24;94.37
706;BME280;21234;48.690;9.016;2023-04-26T05:18:38;96155.81;;;5.28;94.69
706;BME280;21234;48.690;9.016;2023-04-26T05:21:05;96163.25;;;5.07;96.27
706;BME280;21234;48.690;9.016;2023-04-26T05:23:32;96170.94;;;5.29;95.70
706;BME280;21234;48.690;9.016;2023-04-26T05:26:03;96180.47;;;5.31;94.51
706;BME280;21234;48.690;9.016;2023-04-26T05:28:30;96177.66;;;5.20;94.19
706;BME280;21234;48.690;9.016;2023-04-26T05:30:57;96178.84;;;5.24;94.46
706;BME280;21234;48.690;9.016;2023-04-26T05:33:24;96175.34;;;5.23;93.44
706;BME280;21234;48.690;9.016;2023-04-26T05:35:52;96179.47;;;5.26;94.17
706;BME280;21234;48.690;9.016;2023-04-26T05:38:19;96183.50;;;5.42;94.48
706;BME280;21234;48.690;9.016;2023-04-26T05:40:46;96186.03;;;5.61;94.91
706;BME280;21234;48.690;9.016;2023-04-26T05:43:14;96188.47;;;5.88;93.25
706;BME280;21234;48.690;9.016;2023-04-26T05:45:49;96185.63;;;5.83;91.84
706;BME280;21234;48.690;9.016;2023-04-26T05:48:16;96184.13;;;5.87;91.82
706;BME280;21234;48.690;9.016;2023-04-26T05:50:43;96190.16;;;5.89;92.52
706;BME280;21234;48.690;9.016;2023-04-26T05:53:09;96193.16;;;5.99;91.41
706;BME280;21234;48.690;9.016;2023-04-26T05:55:36;96191.28;;;5.99;91.45
706;BME280;21234;48.690;9.016;2023-04-26T05:58:03;96186.06;;;6.04;90.40
706;BME280;21234;48.690;9.016;2023-04-26T06:00:32;96183.91;;;6.13;90.86
706;BME280;21234;48.690;9.016;2023-04-26T06:02:59;96189.22;;;6.38;92.24
706;BME280;21234;48.690;9.016;2023-04-26T06:05:25;96194.88;;;6.66;88.57
706;BME280;21234;48.690;9.016;2023-04-26T06:07:53;96189.09;;;6.81;87.75
706;BME280;21234;48.690;9.016;2023-04-26T06:10:19;96183.75;;;6.74;88.91
706;BME280;21234;48.690;9.016;2023-04-26T06:12:46;96201.13;;;6.97;86.14
706;BME280;21234;48.690;9.016;2023-04-26T06:15:13;96203.81;;;6.97;82.69
706;BME280;21234;48.690;9.016;2023-04-26T06:17:41;96201.66;;;7.17;81.98
706;BME280;21234;48.690;9.016;2023-04-26T06:20:08;96198.50;;;7.20;80.15
706;BME280;21234;48.690;9.016;2023-04-26T06:22:35;96202.38;;;7.24;77.78
706;BME280;21234;48.690;9.016;2023-04-26T06:25:03;96205.16;;;7.06;78.93
706;BME280;21234;48.690;9.016;2023-04-26T06:27:30;96207.13;;;6.99;78.68
706;BME280;21234;48.690;9.016;2023-04-26T06:29:56;96205.00;;;7.31;78.11
706;BME280;21234;48.690;9.016;2023-04-26T06:32:23;96213.47;;;7.34;75.24
706;BME280;21234;48.690;9.016;2023-04-26T06:34:51;96211.97;;;7.50;71.81
706;BME280;21234;48.690;9.016;2023-04-26T06:37:18;96216.41;;;7.33;70.05
706;BME280;21234;48.690;9.016;2023-04-26T06:39:44;96212.16;;;7.79;70.54
706;BME280;21234;48.690;9.016;2023-04-26T06:42:11;96211.78;;;7.75;70.52
706;BME280;21234;48.690;9.016;2023-04-26T06:44:38;96208.09;;;7.58;69.20
706;BME280;21234;48.690;9.016;2023-04-26T06:47:04;96206.56;;;7.38;70.09
706;BME280;21234;48.690;9.016;2023-04-26T06:49:33;96204.06;;;7.49;66.98
706;BME280;21234;48.690;9.016;2023-04-26T06:52:02;96201.91;;;8.04;67.37
706;BME280;21234;48.690;9.016;2023-04-26T06:54:31;96200.63;;;8.41;64.23
706;BME280;21234;48.690;9.016;2023-04-26T06:56:57;96200.63;;;8.82;62.64
706;BME280;21234;48.690;9.016;2023-04-26T06:59:24;96202.59;;;9.15;62.65
706;BME280;21234;48.690;9.016;2023-04-26T07:01:51;96201.00;;;9.30;59.56
706;BME280;21234;48.690;9.016;2023-04-26T07:04:18;96193.16;;;9.62;61.19
706;BME280;21234;48.690;9.016;2023-04-26T07:06:45;96202.06;;;9.74;58.04
706;BME280;21234;48.690;9.016;2023-04-26T07:09:13;96187.78;;;9.51;55.24
706;BME280;21234;48.690;9.016;2023-04-26T07:11:40;96197.66;;;9.40;55.40
706;BME280;21234;48.690;9.016;2023-04-26T07:14:06;96193.06;;;9.12;54.12
706;BME280;21234;48.690;9.016;2023-04-26T07:16:33;96196.31;;;8.97;56.45
706;BME280;21234;48.690;9.016;2023-04-26T07:19:00;96190.03;;;9.08;55.48
706;BME280;21234;48.690;9.016;2023-04-26T07:21:26;96182.44;;;8.94;56.76
706;BME280;21234;48.690;9.016;2023-04-26T07:23:53;96188.09;;;8.92;56.78
706;BME280;21234;48.690;9.016;2023-04-26T07:26:22;96185.03;;;9.17;55.01
706;BME280;21234;48.690;9.016;2023-04-26T07:28:49;96176.22;;;9.38;54.51
706;BME280;21234;48.690;9.016;2023-04-26T07:31:16;96179.66;;;9.84;53.08
706;BME280;21234;48.690;9.016;2023-04-26T07:33:43;96177.16;;;10.33;50.40
706;BME280;21234;48.690;9.016;2023-04-26T07:36:10;96171.41;;;10.51;50.01
706;BME280;21234;48.690;9.016;2023-04-26T07:38:37;96176.44;;;10.59;50.03
706;BME280;21234;48.690;9.016;2023-04-26T07:41:03;96173.13;;;10.57;48.29
706;BME280;21234;48.690;9.016;2023-04-26T07:43:32;96175.78;;;10.52;49.62
706;BME280;21234;48.690;9.016;2023-04-26T07:45:59;96176.75;;;10.07;50.16
706;BME280;21234;48.690;9.016;2023-04-26T07:48:26;96169.53;;;9.96;52.21
706;BME280;21234;48.690;9.016;2023-04-26T07:50:53;96175.63;;;9.87;51.40
706;BME280;21234;48.690;9.016;2023-04-26T07:53:21;96174.91;;;9.74;51.27
706;BME280;21234;48.690;9.016;2023-04-26T07:55:49;96172.25;;;9.96;52.50
706;BME280;21234;48.690;9.016;2023-04-26T07:58:15;96187.41;;;9.92;51.21
706;BME280;21234;48.690;9.016;2023-04-26T08:00:45;96179.63;;;10.34;51.17
706;BME280;21234;48.690;9.016;2023-04-26T08:03:13;96178.06;;;10.38;51.10
706;BME280;21234;48.690;9.016;2023-04-26T08:05:40;96175.34;;;10.38;50.91
706;BME280;21234;48.690;9.016;2023-04-26T08:08:07;96179.53;;;11.17;51.93
706;BME280;21234;48.690;9.016;2023-04-26T08:10:34;96177.84;;;11.37;51.52
706;BME280;21234;48.690;9.016;2023-04-26T08:13:01;96185.34;;;11.52;49.78
706;BME280;21234;48.690;9.016;2023-04-26T08:15:28;96183.03;;;11.71;50.30
706;BME280;21234;48.690;9.016;2023-04-26T08:17:58;96196.91;;;11.64;48.69
706;BME280;21234;48.690;9.016;2023-04-26T08:20:24;96184.44;;;12.05;48.56
706;BME280;21234;48.690;9.016;2023-04-26T08:22:54;96186.59;;;12.03;48.18
706;BME280;21234;48.690;9.016;2023-04-26T08:25:21;96193.66;;;11.14;47.70
706;BME280;21234;48.690;9.016;2023-04-26T08:27:48;96200.28;;;11.50;51.06
706;BME280;21234;48.690;9.016;2023-04-26T08:30:15;96194.91;;;11.06;48.31
706;BME280;21234;48.690;9.016;2023-04-26T08:32:43;96190.03;;;10.42;50.05
706;BME280;21234;48.690;9.016;2023-04-26T08:35:11;96187.38;;;10.26;53.04
706;BME280;21234;48.690;9.016;2023-04-26T08:37:38;96192.38;;;10.17;51.38
706;BME280;21234;48.690;9.016;2023-04-26T08:40:06;96194.22;;;9.78;52.04
706;BME280;21234;48.690;9.016;2023-04-26T08:42:38;96195.13;;;9.67;53.36
706;BME280;21234;48.690;9.016;2023-04-26T08:45:07;96201.47;;;9.56;54.65
706;BME280;21234;48.690;9.016;2023-04-26T08:47:39;96192.72;;;9.54;53.31
706;BME280;21234;48.690;9.016;2023-04-26T08:50:11;96196.50;;;9.53;55.89
706;BME280;21234;48.690;9.016;2023-04-26T08:52:40;96192.53;;;9.27;54.83
706;BME280;21234;48.690;9.016;2023-04-26T08:55:08;96198.56;;;9.00;54.25
706;BME280;21234;48.690;9.016;2023-04-26T08:57:35;96199.03;;;8.69;53.83
706;BME280;21234;48.690;9.016;2023-04-26T09:00:03;96201.97;;;8.67;54.78
706;BME280;21234;48.690;9.016;2023-04-26T09:02:31;96200.28;;;8.78;54.18
706;BME280;21234;48.690;9.016;2023-04-26T09:04:58;96203.56;;;8.80;55.00
706;BME280;21234;48.690;9.016;2023-04-26T09:07:29;96199.03;;;8.97;58.54
706;BME280;21234;48.690;9.016;2023-04-26T09:09:58;96203.44;;;9.15;57.72
706;BME280;21234;48.690;9.016;2023-04-26T09:12:25;96204.13;;;9.22;55.96
706;BME280;21234;48.690;9.016;2023-04-26T09:14:52;96201.75;;;9.26;56.04
706;BME280;21234;48.690;9.016;2023-04-26T09:17:25;96196.31;;;9.42;58.40
706;BME280;21234;48.690;9.016;2023-04-26T09:19:52;96194.91;;;9.68;57.00
706;BME280;21234;48.690;9.016;2023-04-26T09:22:31;96191.50;;;10.28;56.93
706;BME280;21234;48.690;9.016;2023-04-26T09:24:58;96183.19;;;10.78;52.83
706;BME280;21234;48.690;9.016;2023-04-26T09:27:33;96189.19;;;11.02;52.91
706;BME280;21234;48.690;9.016;2023-04-26T09:30:03;96182.13;;;11.28;51.41
706;BME280;21234;48.690;9.016;2023-04-26T09:32:43;96179.91;;;11.25;48.19
706;BME280;21234;48.690;9.016;2023-04-26T09:35:20;96187.56;;;11.28;48.55
706;BME280;21234;48.690;9.016;2023-04-26T09:37:52;96182.38;;;11.27;52.01
706;BME280;21234;48.690;9.016;2023-04-26T09:40:20;96186.09;;;10.94;48.23
706;BME280;21234;48.690;9.016;2023-04-26T09:42:55;96174.47;;;10.55;49.41
706;BME280;21234;48.690;9.016;2023-04-26T09:45:22;96174.56;;;10.43;49.43
706;BME280;21234;48.690;9.016;2023-04-26T09:47:49;96176.69;;;10.02;48.77
706;BME280;21234;48.690;9.016;2023-04-26T09:50:25;96186.06;;;9.78;51.24
706;BME280;21234;48.690;9.016;2023-04-26T09:52:53;96180.84;;;9.71;52.60
706;BME280;21234;48.690;9.016;2023-04-26T09:55:25;96179.31;;;9.81;55.80
706;BME280;21234;48.690;9.016;2023-04-26T09:57:52;96184.84;;;9.86;54.64
706;BME280;21234;48.690;9.016;2023-04-26T10:00:19;96183.06;;;9.74;53.15
706;BME280;21234;48.690;9.016;2023-04-26T10:02:46;96179.34;;;9.64;52.10
706;BME280;21234;48.690;9.016;2023-04-26T10:05:13;96180.25;;;9.69;54.46
706;BME280;21234;48.690;9.016;2023-04-26T10:07:40;96176.53;;;9.75;54.75
706;BME280;21234;48.690;9.016;2023-04-26T10:10:09;96172.91;;;9.87;56.55
706;BME280;21234;48.690;9.016;2023-04-26T10:12:37;96173.31;;;9.95;53.67
706;BME280;21234;48.690;9.016;2023-04-26T10:15:07;96166.16;;;10.23;54.93
706;BME280;21234;48.690;9.016;2023-04-26T10:17:35;96166.13;;;10.39;52.69
706;BME280;21234;48.690;9.016;2023-04-26T10:20:03;96169.78;;;10.50;53.72
706;BME280;21234;48.690;9.016;2023-04-26T10:22:36;96162.59;;;10.39;51.51
706;BME280;21234;48.690;9.016;2023-04-26T10:25:08;96151.88;;;10.54;52.67
706;BME280;21234;48.690;9.016;2023-04-26T10:27:51;96157.59;;;10.53;47.98
706;BME280;21234;48.690;9.016;2023-04-26T10:30:21;96161.69;;;10.55;48.79
706;BME280;21234;48.690;9.016;2023-04-26T10:33:20;96159.09;;;10.43;50.87
706;BME280;21234;48.690;9.016;2023-04-26T10:36:03;96159.41;;;10.47;50.75
706;BME280;21234;48.690;9.016;2023-04-26T10:38:30;96156.81;;;10.57;52.54
706;BME280;21234;48.690;9.016;2023-04-26T10:41:31;96159.41;;;10.25;46.87
706;BME280;21234;48.690;9.016;2023-04-26T10:46:59;96156.63;;;10.42;50.94
706;BME280;21234;48.690;9.016;2023-04-26T10:49:25;96162.75;;;10.54;49.16
706;BME280;21234;48.690;9.016;2023-04-26T10:52:08;96159.63;;;10.62;47.83
706;BME280;21234;48.690;9.016;2023-04-26T10:54:48;96152.09;;;10.69;49.31
706;BME280;21234;48.690;9.016;2023-04-26T10:57:16;96149.53;;;10.85;49.38
706;BME280;21234;48.690;9.016;2023-04-26T11:00:15;96144.38;;;11.10;47.53
706;BME280;21234;48.690;9.016;2023-04-26T11:02:46;96142.31;;;11.22;47.29
706;BME280;21234;48.690;9.016;2023-04-26T11:05:47;96145.88;;;11.23;46.42
706;BME280;21234;48.690;9.016;2023-04-26T11:08:17;96148.59;;;11.23;45.94
706;BME280;21234;48.690;9.016;2023-04-26T11:10:49;96136.34;;;11.52;49.05
706;BME280;21234;48.690;9.016;2023-04-26T11:13:18;96133.97;;;11.61;46.75
706;BME280;21234;48.690;9.016;2023-04-26T11:15:45;96130.06;;;11.52;44.23
706;BME280;21234;48.690;9.016;2023-04-26T11:18:12;96140.75;;;11.58;46.07
706;BME280;21234;48.690;9.016;2023-04-26T11:20:38;96131.28;;;11.66;49.00
706;BME280;21234;48.690;9.016;2023-04-26T11:23:06;96133.41;;;11.59;47.91
706;BME280;21234;48.690;9.016;2023-04-26T11:25:33;96122.34;;;11.75;48.95
706;BME280;21234;48.690;9.016;2023-04-26T11:28:00;96109.94;;;12.37;48.91
706;BME280;21234;48.690;9.016;2023-04-26T11:30:30;96103.41;;;12.33;46.98
706;BME280;21234;48.690;9.016;2023-04-26T11:32:57;96093.44;;;12.06;43.31
706;BME280;21234;48.690;9.016;2023-04-26T11:35:24;96088.78;;;11.97;48.14
706;BME280;21234;48.690;9.016;2023-04-26T11:37:51;96095.56;;;11.94;43.61
706;BME280;21234;48.690;9.016;2023-04-26T11:40:18;96090.97;;;12.05;44.45
706;BME280;21234;48.690;9.016;2023-04-26T11:42:46;96090.28;;;12.25;49.05
706;BME280;21234;48.690;9.016;2023-04-26T11:45:14;96081.53;;;12.18;46.01
706;BME280;21234;48.690;9.016;2023-04-26T11:47:45;96080.56;;;11.92;47.06
706;BME280;21234;48.690;9.016;2023-04-26T11:50:13;96074.28;;;11.91;46.72
706;BME280;21234;48.690;9.016;2023-04-26T11:52:40;96077.34;;;12.00;47.84
706;BME280;21234;48.690;9.016;2023-04-26T11:55:08;96073.66;;;12.26;46.90
706;BME280;21234;48.690;9.016;2023-04-26T11:57:35;96077.59;;;12.51;47.88
706;BME280;21234;48.690;9.016;2023-04-26T12:00:12;96068.69;;;12.81;45.40
706;BME280;21234;48.690;9.016;2023-04-26T12:02:44;96064.09;;;13.06;43.93
706;BME280;21234;48.690;9.016;2023-04-26T12:05:19;96063.81;;;12.93;43.04
706;BME280;21234;48.690;9.016;2023-04-26T12:07:48;96066.25;;;13.04;42.23
706;BME280;21234;48.690;9.016;2023-04-26T12:10:17;96070.03;;;12.78;41.94
706;BME280;21234;48.690;9.016;2023-04-26T12:12:48;96073.22;;;12.50;41.59
706;BME280;21234;48.690;9.016;2023-04-26T12:15:15;96085.75;;;12.51;41.31
706;BME280;21234;48.690;9.016;2023-04-26T12:17:58;96082.84;;;12.10;44.25
706;BME280;21234;48.690;9.016;2023-04-26T12:20:26;96075.59;;;12.36;44.28
706;BME280;21234;48.690;9.016;2023-04-26T12:23:04;96070.91;;;12.99;41.97
706;BME280;21234;48.690;9.016;2023-04-26T12:25:32;96060.31;;;13.68;40.41
706;BME280;21234;48.690;9.016;2023-04-26T12:27:59;96060.34;;;13.58;41.67
706;BME280;21234;48.690;9.016;2023-04-26T12:30:27;96073.69;;;13.39;40.19
706;BME280;21234;48.690;9.016;2023-04-26T12:32:56;96066.00;;;13.06;40.10
706;BME280;21234;48.690;9.016;2023-04-26T12:35:23;96076.03;;;12.75;39.90
706;BME280;21234;48.690;9.016;2023-04-26T12:37:51;96069.50;;;12.86;41.38
706;BME280;21234;48.690;9.016;2023-04-26T12:40:21;96068.44;;;13.07;41.73
706;BME280;21234;48.690;9.016;2023-04-26T12:42:48;96057.88;;;13.26;43.35
706;BME280;21234;48.690;9.016;2023-04-26T12:45:16;96057.53;;;13.02;41.73
706;BME280;21234;48.690;9.016;2023-04-26T12:47:43;96054.53;;;13.09;43.14
706;BME280;21234;48.690;9.016;2023-04-26T12:50:12;96058.97;;;13.40;42.46
706;BME280;21234;48.690;9.016;2023-04-26T12:52:39;96046.34;;;13.90;45.25
706;BME280;21234;48.690;9.016;2023-04-26T12:55:07;96062.22;;;13.78;40.71
706;BME280;21234;48.690;9.016;2023-04-26T12:57:35;96051.03;;;13.39;40.33
706;BME280;21234;48.690;9.016;2023-04-26T13:00:02;96050.78;;;13.25;40.00
706;BME280;21234;48.690;9.016;2023-04-26T13:02:30;96052.13;;;13.48;39.01
706;BME280;21234;48.690;9.016;2023-04-26T13:04:56;96051.59;;;13.56;42.25
706;BME280;21234;48.690;9.016;2023-04-26T13:07:26;96054.06;;;13.53;41.89
706;BME280;21234;48.690;9.016;2023-04-26T13:09:53;96042.84;;;13.44;42.86
706;BME280;21234;48.690;9.016;2023-04-26T13:12:19;96044.16;;;13.11;46.08
706;BME280;21234;48.690;9.016;2023-04-26T13:14:46;96045.56;;;13.34;46.58
706;BME280;21234;48.690;9.016;2023-04-26T13:17:13;96034.94;;;13.37;43.86
706;BME280;21234;48.690;9.016;2023-04-26T13:19:40;96038.47;;;13.48;41.97
706;BME280;21234;48.690;9.016;2023-04-26T13:22:09;96040.38;;;13.42;41.69
706;BME280;21234;48.690;9.016;2023-04-26T13:24:37;96039.31;;;13.28;41.98
706;BME280;21234;48.690;9.016;2023-04-26T13:27:04;96048.31;;;13.19;41.05
706;BME280;21234;48.690;9.016;2023-04-26T13:29:31;96049.06;;;13.04;39.88
706;BME280;21234;48.690;9.016;2023-04-26T13:31:58;96042.81;;;13.08;40.06
706;BME280;21234;48.690;9.016;2023-04-26T13:34:24;96042.25;;;13.06;45.24
706;BME280;21234;48.690;9.016;2023-04-26T13:36:51;96047.94;;;12.79;43.25
706;BME280;21234;48.690;9.016;2023-04-26T13:39:18;96042.22;;;12.86;46.13
706;BME280;21234;48.690;9.016;2023-04-26T13:41:46;96046.34;;;13.04;41.32
706;BME280;21234;48.690;9.016;2023-04-26T13:44:13;96046.31;;;12.78;44.70
706;BME280;21234;48.690;9.016;2023-04-26T13:46:40;96043.03;;;12.76;46.34
706;BME280;21234;48.690;9.016;2023-04-26T13:49:06;96040.31;;;12.87;43.87
706;BME280;21234;48.690;9.016;2023-04-26T13:51:34;96039.78;;;12.85;45.99
706;BME280;21234;48.690;9.016;2023-04-26T13:54:01;96040.91;;;13.14;44.38
706;BME280;21234;48.690;9.016;2023-04-26T13:56:30;96039.84;;;13.25;44.36
706;BME280;21234;48.690;9.016;2023-04-26T13:58:58;96040.34;;;13.07;41.93